createdAt,value
2023-03-06T00:01:01.295Z,0.97
2023-03-06T00:04:03.002Z,0.95
2023-03-06T00:07:04.696Z,0.95
2023-03-06T00:10:07.016Z,1.19
2023-03-06T00:13:14.030Z,1.13
2023-03-06T00:16:15.656Z,0.94
2023-03-06T00:19:17.337Z,0.86
2023-03-06T00:22:19.079Z,0.96
2023-03-06T00:25:21.580Z,0.80
2023-03-06T00:28:23.484Z,0.80
2023-03-06T00:31:25.224Z,0.98
2023-03-06T00:34:27.199Z,0.94
2023-03-06T00:37:28.827Z,1.05
2023-03-06T00:40:30.471Z,0.89
2023-03-06T00:43:32.135Z,0.90
2023-03-06T00:46:33.775Z,0.82
2023-03-06T00:49:35.657Z,0.88
2023-03-06T00:52:37.422Z,1.07
2023-03-06T00:55:39.075Z,1.06
2023-03-06T00:58:40.800Z,1.10
2023-03-06T01:01:42.480Z,0.92
2023-03-06T01:04:44.324Z,1.10
2023-03-06T01:07:46.062Z,1.06
2023-03-06T01:10:47.694Z,1.13
2023-03-06T01:13:49.744Z,1.00
2023-03-06T01:16:51.471Z,1.05
2023-03-06T01:19:53.127Z,0.88
2023-03-06T01:22:56.637Z,0.90
2023-03-06T01:25:59.086Z,1.06
2023-03-06T01:29:01.322Z,1.06
2023-03-06T01:32:03.084Z,1.19
2023-03-06T01:35:05.630Z,1.25
2023-03-06T01:38:07.370Z,1.36
2023-03-06T01:41:10.958Z,1.00
2023-03-06T01:44:13.800Z,0.97
2023-03-06T01:47:15.532Z,1.35
2023-03-06T01:50:17.343Z,1.23
2023-03-06T01:53:20.186Z,1.27
2023-03-06T01:56:22.968Z,1.35
2023-03-06T01:59:27.009Z,1.17
2023-03-06T02:02:29.019Z,1.09
2023-03-06T02:05:31.211Z,1.26
2023-03-06T02:08:33.499Z,1.46
2023-03-06T02:11:35.153Z,1.68
2023-03-06T02:14:38.188Z,1.59
2023-03-06T02:17:41.705Z,1.60
2023-03-06T02:21:00.448Z,1.43
2023-03-06T02:24:17.361Z,1.69
2023-03-06T02:27:19.983Z,1.84
2023-03-06T02:30:23.690Z,1.66
2023-03-06T02:33:29.342Z,1.66
2023-03-06T02:36:32.660Z,1.51
2023-03-06T02:39:38.201Z,1.85
2023-03-06T02:42:47.223Z,2.00
2023-03-06T02:45:51.310Z,2.21
2023-03-06T02:48:53.210Z,1.66
2023-03-06T02:51:54.905Z,1.88
2023-03-06T02:54:56.690Z,1.72
2023-03-06T02:57:58.512Z,2.09
2023-03-06T03:01:00.220Z,2.22
2023-03-06T03:04:01.861Z,2.20
2023-03-06T03:07:03.566Z,2.08
2023-03-06T03:10:05.648Z,2.17
2023-03-06T03:13:07.291Z,1.64
2023-03-06T03:16:14.180Z,1.94
2023-03-06T03:19:15.818Z,2.08
2023-03-06T03:22:18.506Z,2.04
2023-03-06T03:25:20.745Z,1.92
2023-03-06T03:28:22.389Z,1.99
2023-03-06T03:31:24.252Z,2.07
2023-03-06T03:34:26.237Z,2.17
2023-03-06T03:37:28.037Z,1.75
2023-03-06T03:40:29.796Z,2.17
2023-03-06T03:43:32.189Z,1.98
2023-03-06T03:46:33.966Z,1.99
2023-03-06T03:49:35.638Z,1.99
2023-03-06T03:52:37.399Z,2.03
2023-03-06T03:55:39.448Z,1.80
2023-03-06T03:58:41.117Z,2.11
2023-03-06T04:01:42.829Z,2.19
2023-03-06T04:04:44.538Z,1.83
2023-03-06T04:07:46.377Z,1.58
2023-03-06T04:10:48.044Z,2.11
2023-03-06T04:13:49.686Z,1.91
2023-03-06T04:16:51.363Z,2.14
2023-03-06T04:19:53.179Z,1.91
2023-03-06T04:22:54.790Z,2.09
2023-03-06T04:25:56.476Z,1.80
2023-03-06T04:28:58.660Z,1.88
2023-03-06T04:32:00.340Z,1.79
2023-03-06T04:35:02.356Z,1.87
2023-03-06T04:38:04.528Z,2.04
2023-03-06T04:41:06.161Z,2.31
2023-03-06T04:44:08.622Z,2.32
2023-03-06T04:47:11.236Z,2.06
2023-03-06T04:50:13.270Z,1.93
2023-03-06T04:53:16.787Z,2.25
2023-03-06T04:56:18.864Z,2.16
2023-03-06T04:59:20.565Z,1.84
2023-03-06T05:02:24.290Z,1.97
2023-03-06T05:05:26.698Z,2.04
2023-03-06T05:08:28.527Z,2.05
2023-03-06T05:11:30.539Z,2.27
2023-03-06T05:14:32.305Z,2.19
2023-03-06T05:17:34.182Z,2.23
2023-03-06T05:20:35.809Z,2.29
2023-03-06T05:23:41.106Z,2.22
2023-03-06T05:26:42.756Z,2.14
2023-03-06T05:29:44.495Z,2.01
2023-03-06T05:32:46.212Z,1.82
2023-03-06T05:35:48.822Z,1.79
2023-03-06T05:38:50.500Z,1.92
2023-03-06T05:41:52.134Z,2.07
2023-03-06T05:44:53.794Z,1.93
2023-03-06T05:47:55.431Z,1.98
2023-03-06T05:50:58.348Z,1.71
2023-03-06T05:53:59.982Z,1.80
2023-03-06T05:57:02.138Z,1.86
2023-03-06T06:00:04.474Z,1.90
2023-03-06T06:03:06.138Z,1.91
2023-03-06T06:06:09.772Z,2.01
2023-03-06T06:09:13.849Z,2.38
2023-03-06T06:12:15.677Z,2.54
2023-03-06T06:15:17.421Z,2.74
2023-03-06T06:18:19.118Z,2.73
2023-03-06T06:21:21.046Z,2.62
2023-03-06T06:24:25.124Z,2.87
2023-03-06T06:27:26.816Z,3.03
2023-03-06T06:30:28.579Z,3.21
2023-03-06T06:33:30.239Z,3.08
2023-03-06T06:36:32.510Z,3.26
2023-03-06T06:39:34.141Z,3.37
2023-03-06T06:42:39.909Z,3.46
2023-03-06T06:45:44.215Z,3.64
2023-03-06T06:48:49.349Z,3.64
2023-03-06T06:51:50.985Z,3.75
2023-03-06T06:54:53.171Z,3.21
2023-03-06T06:57:54.836Z,3.21
2023-03-06T07:00:56.492Z,3.62
2023-03-06T07:03:58.281Z,3.46
2023-03-06T07:07:00.256Z,3.68
2023-03-06T07:10:02.801Z,3.86
2023-03-06T07:13:04.454Z,4.00
2023-03-06T07:16:06.622Z,3.78
2023-03-06T07:19:08.682Z,4.26
2023-03-06T07:22:10.393Z,4.23
2023-03-06T07:25:12.598Z,3.87
2023-03-06T07:28:14.433Z,3.71
2023-03-06T07:31:16.211Z,3.86
2023-03-06T07:34:17.881Z,3.89
2023-03-06T07:37:19.876Z,3.64
2023-03-06T07:40:22.092Z,3.59
2023-03-06T07:43:23.746Z,3.51
2023-03-06T07:46:25.536Z,3.78
2023-03-06T07:49:27.185Z,4.65
2023-03-06T07:52:29.463Z,4.57
2023-03-06T07:55:31.128Z,4.79
2023-03-06T07:58:32.744Z,4.89
2023-03-06T08:01:36.262Z,4.72
2023-03-06T08:04:38.239Z,4.66
2023-03-06T08:07:39.937Z,4.53
2023-03-06T08:10:46.854Z,4.42
2023-03-06T08:13:49.384Z,4.23
2023-03-06T08:16:51.330Z,4.45
2023-03-06T08:19:52.970Z,4.44
2023-03-06T08:22:54.629Z,4.25
2023-03-06T08:26:01.119Z,4.22
2023-03-06T08:29:02.952Z,4.33
2023-03-06T08:32:04.922Z,4.81
2023-03-06T08:35:07.189Z,5.59
2023-03-06T08:38:08.864Z,6.61
2023-03-06T08:41:10.577Z,7.72
2023-03-06T08:44:12.916Z,8.46
2023-03-06T08:47:14.579Z,9.59
2023-03-06T08:50:16.400Z,8.22
2023-03-06T08:53:18.389Z,6.67
2023-03-06T08:56:20.020Z,6.16
2023-03-06T08:59:21.668Z,6.12
2023-03-06T09:02:23.417Z,5.63
2023-03-06T09:05:25.203Z,5.66
2023-03-06T09:08:26.852Z,6.04
2023-03-06T09:11:30.314Z,5.97
2023-03-06T09:14:32.186Z,5.82
2023-03-06T09:17:33.861Z,5.85
2023-03-06T09:20:35.621Z,6.70
2023-03-06T09:23:39.607Z,6.31
2023-03-06T09:26:46.206Z,7.58
2023-03-06T09:29:48.806Z,8.21
2023-03-06T09:32:50.441Z,8.29
2023-03-06T09:35:55.080Z,7.85
2023-03-06T09:38:56.890Z,8.11
2023-03-06T09:41:59.205Z,8.19
2023-03-06T09:45:04.713Z,8.18
2023-03-06T09:48:15.017Z,8.09
2023-03-06T09:51:18.830Z,7.31
2023-03-06T09:54:32.883Z,8.35
2023-03-06T09:57:42.782Z,8.82
2023-03-06T10:01:24.948Z,9.37
2023-03-06T10:04:42.640Z,8.49
2023-03-06T10:08:06.430Z,9.58
2023-03-06T10:11:10.835Z,8.40
2023-03-06T10:14:12.403Z,8.49
2023-03-06T10:17:20.822Z,8.48
2023-03-06T10:20:24.549Z,8.87
2023-03-06T10:23:49.144Z,9.59
2023-03-06T10:27:29.584Z,8.88
2023-03-06T10:30:44.739Z,7.78
2023-03-06T10:33:58.510Z,7.31
2023-03-06T10:37:11.842Z,6.83
2023-03-06T10:40:20.093Z,6.61
2023-03-06T10:43:23.741Z,6.75
2023-03-06T10:46:37.377Z,6.84
2023-03-06T10:49:39.119Z,6.76
2023-03-06T10:52:40.759Z,6.83
2023-03-06T10:55:52.184Z,6.63
2023-03-06T10:59:12.484Z,7.07
2023-03-06T11:02:26.057Z,7.59
2023-03-06T11:05:27.731Z,6.70
2023-03-06T11:08:30.772Z,6.45
2023-03-06T11:11:37.793Z,7.46
2023-03-06T11:14:39.767Z,8.43
2023-03-06T11:18:02.920Z,7.40
2023-03-06T11:21:23.398Z,7.35
2023-03-06T11:24:25.260Z,7.84
2023-03-06T11:27:34.601Z,9.14
2023-03-06T11:30:43.082Z,9.02
2023-03-06T11:33:50.586Z,7.65
2023-03-06T11:37:08.337Z,7.82
2023-03-06T11:40:28.957Z,6.75
2023-03-06T11:44:00.832Z,7.13
2023-03-06T11:47:17.254Z,7.03
2023-03-06T11:50:25.637Z,6.06
2023-03-06T11:53:37.000Z,6.27
2023-03-06T11:56:51.780Z,6.28
2023-03-06T12:00:18.300Z,5.91
2023-03-06T12:03:45.056Z,5.90
2023-03-06T12:07:11.055Z,6.06
2023-03-06T12:10:15.585Z,5.87
2023-03-06T12:14:05.287Z,5.95
2023-03-06T12:17:19.397Z,5.89
2023-03-06T12:20:56.149Z,5.90
2023-03-06T12:24:29.819Z,5.78
2023-03-06T12:27:34.434Z,6.16
2023-03-06T12:31:20.254Z,6.40
2023-03-06T12:34:43.709Z,6.32
2023-03-06T12:38:00.050Z,6.80
2023-03-06T12:41:27.742Z,6.69
2023-03-06T12:45:20.649Z,6.85
2023-03-06T12:48:27.525Z,6.44
2023-03-06T12:51:30.209Z,6.70
2023-03-06T12:54:37.281Z,6.59
2023-03-06T12:57:38.945Z,6.53
2023-03-06T13:01:03.705Z,6.67
2023-03-06T13:04:05.696Z,6.61
2023-03-06T13:07:22.818Z,6.88
2023-03-06T13:10:35.835Z,6.96
2023-03-06T13:13:46.140Z,7.28
2023-03-06T13:16:47.833Z,7.47
2023-03-06T13:20:15.642Z,7.40
2023-03-06T13:23:29.612Z,7.34
2023-03-06T13:26:31.225Z,7.07
2023-03-06T13:29:35.911Z,7.18
2023-03-06T13:32:37.639Z,7.39
2023-03-06T13:35:42.297Z,7.38
2023-03-06T13:38:43.978Z,7.10
2023-03-06T13:41:59.306Z,7.05
2023-03-06T13:45:17.910Z,7.05
2023-03-06T13:48:46.224Z,7.05
2023-03-06T13:51:53.688Z,7.15
2023-03-06T13:55:24.177Z,7.02
2023-03-06T13:58:50.814Z,7.09
2023-03-06T14:02:10.067Z,7.05
2023-03-06T14:05:17.098Z,6.84
2023-03-06T14:08:22.692Z,6.93
2023-03-06T14:11:25.173Z,7.06
2023-03-06T14:14:36.044Z,7.01
2023-03-06T14:17:39.189Z,6.96
2023-03-06T14:20:48.488Z,6.95
2023-03-06T14:24:00.399Z,6.98
2023-03-06T14:27:02.698Z,7.10
2023-03-06T14:30:13.620Z,7.14
2023-03-06T14:33:44.501Z,7.13
2023-03-06T14:36:49.207Z,7.07
2023-03-06T14:39:51.867Z,7.41
2023-03-06T14:43:15.675Z,7.34
2023-03-06T14:46:22.480Z,7.39
2023-03-06T14:49:26.225Z,7.54
2023-03-06T14:52:28.341Z,7.70
2023-03-06T14:55:32.855Z,7.87
2023-03-06T14:58:40.386Z,7.68
2023-03-06T15:01:43.583Z,7.89
2023-03-06T15:04:49.156Z,7.74
2023-03-06T15:07:52.812Z,7.82
2023-03-06T15:10:59.684Z,7.77
2023-03-06T15:14:03.872Z,7.63
2023-03-06T15:17:41.923Z,7.76
2023-03-06T15:20:50.215Z,7.79
2023-03-06T15:23:54.406Z,7.77
2023-03-06T15:27:07.091Z,7.67
2023-03-06T15:30:35.738Z,7.94
2023-03-06T15:33:37.746Z,7.77
2023-03-06T15:36:48.436Z,7.69
2023-03-06T15:40:04.403Z,8.05
2023-03-06T15:43:10.933Z,8.45
2023-03-06T15:46:13.321Z,7.99
2023-03-06T15:49:18.367Z,8.05
2023-03-06T15:52:23.199Z,8.31
2023-03-06T15:55:26.208Z,8.44
2023-03-06T15:58:31.669Z,8.43
2023-03-06T16:01:36.081Z,7.93
2023-03-06T16:04:38.696Z,7.46
2023-03-06T16:07:40.494Z,7.35
2023-03-06T16:10:45.090Z,7.20
2023-03-06T16:13:46.977Z,7.18
2023-03-06T16:16:49.706Z,7.06
2023-03-06T16:19:51.681Z,7.10
2023-03-06T16:22:56.705Z,7.04
2023-03-06T16:25:58.444Z,7.00
2023-03-06T16:29:00.950Z,6.97
2023-03-06T16:32:03.214Z,7.11
2023-03-06T16:35:05.432Z,7.03
2023-03-06T16:38:07.793Z,6.82
2023-03-06T16:41:12.139Z,7.33
2023-03-06T16:44:13.875Z,6.71
2023-03-06T16:47:17.271Z,6.57
2023-03-06T16:50:28.735Z,6.42
2023-03-06T16:53:30.683Z,6.43
2023-03-06T16:56:32.342Z,6.43
2023-03-06T16:59:34.194Z,6.10
2023-03-06T17:02:36.586Z,6.35
2023-03-06T17:05:39.399Z,6.39
2023-03-06T17:08:41.726Z,6.04
2023-03-06T17:11:50.054Z,6.44
2023-03-06T17:14:56.540Z,6.43
2023-03-06T17:17:58.330Z,6.16
2023-03-06T17:21:00.415Z,5.96
2023-03-06T17:24:04.144Z,5.11
2023-03-06T17:27:06.062Z,4.45
2023-03-06T17:30:09.206Z,4.65
2023-03-06T17:33:11.043Z,4.49
2023-03-06T17:36:16.100Z,4.95
2023-03-06T17:39:17.841Z,5.23
2023-03-06T17:42:19.709Z,5.19
2023-03-06T17:45:21.891Z,5.43
2023-03-06T17:48:24.043Z,5.43
2023-03-06T17:51:26.480Z,5.46
2023-03-06T17:54:30.196Z,5.43
2023-03-06T17:57:32.389Z,5.30
2023-03-06T18:00:34.409Z,5.33
2023-03-06T18:03:38.499Z,5.25
2023-03-06T18:06:41.005Z,5.09
2023-03-06T18:09:43.596Z,5.03
2023-03-06T18:12:47.538Z,4.70
2023-03-06T18:15:49.763Z,4.91
2023-03-06T18:18:56.528Z,5.01
2023-03-06T18:21:58.724Z,5.06
2023-03-06T18:25:01.540Z,5.10
2023-03-06T18:28:04.040Z,5.08
2023-03-06T18:31:09.232Z,4.42
2023-03-06T18:34:14.182Z,4.68
2023-03-06T18:37:17.338Z,5.01
2023-03-06T18:40:20.304Z,4.42
2023-03-06T18:43:24.178Z,4.27
2023-03-06T18:46:33.828Z,4.56
2023-03-06T18:49:37.471Z,4.77
2023-03-06T18:52:41.238Z,4.65
2023-03-06T18:55:51.740Z,4.82
2023-03-06T18:58:54.446Z,4.83
2023-03-06T19:01:57.811Z,4.83
2023-03-06T19:05:00.190Z,4.69
2023-03-06T19:08:05.718Z,4.50
2023-03-06T19:11:11.989Z,4.04
2023-03-06T19:14:15.330Z,3.78
2023-03-06T19:17:18.318Z,3.87
2023-03-06T19:20:20.686Z,4.04
2023-03-06T19:23:24.408Z,3.88
2023-03-06T19:26:29.859Z,3.94
2023-03-06T19:29:34.505Z,4.18
2023-03-06T19:32:37.091Z,4.18
2023-03-06T19:35:39.748Z,4.27
2023-03-06T19:38:42.817Z,4.33
2023-03-06T19:41:51.251Z,4.36
2023-03-06T19:44:53.760Z,3.51
2023-03-06T19:48:01.155Z,3.18
2023-03-06T19:51:05.164Z,3.13
2023-03-06T19:54:07.812Z,3.30
2023-03-06T19:57:11.716Z,3.45
2023-03-06T20:00:14.991Z,2.82
2023-03-06T20:03:16.903Z,2.64
2023-03-06T20:06:21.079Z,2.50
2023-03-06T20:09:24.700Z,2.51
2023-03-06T20:12:29.208Z,2.44
2023-03-06T20:15:35.430Z,2.35
2023-03-06T20:18:39.235Z,2.27
2023-03-06T20:21:41.477Z,2.33
2023-03-06T20:24:44.059Z,2.37
2023-03-06T20:27:48.221Z,2.34
2023-03-06T20:30:51.073Z,2.40
2023-03-06T20:33:54.976Z,2.53
2023-03-06T20:36:58.556Z,2.44
2023-03-06T20:40:00.991Z,2.52
2023-03-06T20:43:03.764Z,2.93
2023-03-06T20:46:07.388Z,3.11
2023-03-06T20:49:11.648Z,2.81
2023-03-06T20:52:14.362Z,3.20
2023-03-06T20:55:16.927Z,3.29
2023-03-06T20:58:19.406Z,3.01
2023-03-06T21:01:27.486Z,2.94
2023-03-06T21:04:29.870Z,2.94
2023-03-06T21:07:32.000Z,2.87
2023-03-06T21:10:34.158Z,2.14
2023-03-06T21:13:36.031Z,2.18
2023-03-06T21:16:39.318Z,2.22
2023-03-06T21:19:42.038Z,2.34
2023-03-06T21:22:43.832Z,2.51
2023-03-06T21:25:49.706Z,2.07
2023-03-06T21:28:52.246Z,2.37
2023-03-06T21:31:53.942Z,2.53
2023-03-06T21:34:56.158Z,2.72
2023-03-06T21:37:57.892Z,3.15
2023-03-06T21:41:19.191Z,2.94
2023-03-06T21:44:21.112Z,3.40
2023-03-06T21:47:22.756Z,3.50
2023-03-06T21:50:25.078Z,3.07
2023-03-06T21:53:26.715Z,2.70
2023-03-06T21:56:28.574Z,2.40
2023-03-06T21:59:30.290Z,2.33
2023-03-06T22:02:31.907Z,2.74
2023-03-06T22:05:33.583Z,2.99
2023-03-06T22:08:35.233Z,2.97
2023-03-06T22:11:37.445Z,2.77
2023-03-06T22:14:39.169Z,3.08
2023-03-06T22:17:41.681Z,3.34
2023-03-06T22:20:43.421Z,3.34
2023-03-06T22:23:52.609Z,3.43
2023-03-06T22:26:54.237Z,3.28
2023-03-06T22:29:56.091Z,3.39
2023-03-06T22:32:57.749Z,3.17
2023-03-06T22:36:02.736Z,3.39
2023-03-06T22:39:04.499Z,3.34
2023-03-06T22:42:06.221Z,3.17
2023-03-06T22:45:08.441Z,2.71
2023-03-06T22:48:11.284Z,2.85
2023-03-06T22:51:18.889Z,2.92
2023-03-06T22:54:20.568Z,3.22
2023-03-06T22:57:22.236Z,3.29
2023-03-06T23:00:23.890Z,3.34
2023-03-06T23:03:25.523Z,3.46
2023-03-06T23:06:31.211Z,3.19
2023-03-06T23:09:33.172Z,3.18
2023-03-06T23:12:34.864Z,3.24
2023-03-06T23:15:37.027Z,3.35
2023-03-06T23:18:39.923Z,3.32
2023-03-06T23:21:41.848Z,3.42
2023-03-06T23:24:43.492Z,2.96
2023-03-06T23:27:45.130Z,2.60
2023-03-06T23:30:46.838Z,2.81
2023-03-06T23:33:48.655Z,2.80
2023-03-06T23:36:50.481Z,2.56
2023-03-06T23:39:52.139Z,2.89
2023-03-06T23:42:53.764Z,3.12
2023-03-06T23:45:56.063Z,2.79
2023-03-06T23:48:57.707Z,2.54
2023-03-06T23:51:59.654Z,3.10
2023-03-06T23:55:01.349Z,2.94
2023-03-06T23:58:02.996Z,2.93
